sensor_id;sensor_type;location;lat;lon;timestamp;temperature;humidity
3528;DHT22;1778;47.966;7.854;2023-09-19T00:00:59;16.90;99.90
3528;DHT22;1778;47.966;7.854;2023-09-19T00:02:01;16.90;99.90
3528;DHT22;1778;47.966;7.854;2023-09-19T00:03:06;16.80;99.90
3528;DHT22;1778;47.966;7.854;2023-09-19T00:04:08;16.80;99.90
3528;DHT22;1778;47.966;7.854;2023-09-19T00:05:11;16.80;99.90
3528;DHT22;1778;47.966;7.854;2023-09-19T00:06:13;16.80;99.90
3528;DHT22;1778;47.966;7.854;2023-09-19T00:07:17;16.80;99.90
3528;DHT22;1778;47.966;7.854;2023-09-19T00:08:18;16.80;99.90
3528;DHT22;1778;47.966;7.854;2023-09-19T00:09:25;17.00;99.90
3528;DHT22;1778;47.966;7.854;2023-09-19T00:10:31;17.00;99.90
3528;DHT22;1778;47.966;7.854;2023-09-19T00:11:37;16.90;99.90
3528;DHT22;1778;47.966;7.854;2023-09-19T00:12:43;16.90;99.90
3528;DHT22;1778;47.966;7.854;2023-09-19T00:13:47;16.90;99.90
3528;DHT22;1778;47.966;7.854;2023-09-19T00:14:51;16.90;99.90
3528;DHT22;1778;47.966;7.854;2023-09-19T00:15:54;16.90;99.90
3528;DHT22;1778;47.966;7.854;2023-09-19T00:16:57;16.90;99.90
3528;DHT22;1778;47.966;7.854;2023-09-19T00:17:59;16.80;99.90
3528;DHT22;1778;47.966;7.854;2023-09-19T00:19:00;16.80;99.90
3528;DHT22;1778;47.966;7.854;2023-09-19T00:20:02;16.80;99.90
3528;DHT22;1778;47.966;7.854;2023-09-19T00:21:08;16.70;99.90
3528;DHT22;1778;47.966;7.854;2023-09-19T00:22:11;16.80;99.90
3528;DHT22;1778;47.966;7.854;2023-09-19T00:23:14;16.70;99.90
3528;DHT22;1778;47.966;7.854;2023-09-19T00:24:16;16.70;99.90
3528;DHT22;1778;47.966;7.854;2023-09-19T00:25:19;16.70;99.90
3528;DHT22;1778;47.966;7.854;2023-09-19T00:26:20;16.70;99.90
3528;DHT22;1778;47.966;7.854;2023-09-19T00:27:23;16.70;99.90
3528;DHT22;1778;47.966;7.854;2023-09-19T00:28:25;16.70;99.90
3528;DHT22;1778;47.966;7.854;2023-09-19T00:29:27;16.70;99.90
3528;DHT22;1778;47.966;7.854;2023-09-19T00:30:30;16.60;99.90
3528;DHT22;1778;47.966;7.854;2023-09-19T00:31:32;16.60;99.90
3528;DHT22;1778;47.966;7.854;2023-09-19T00:32:34;16.60;99.90
3528;DHT22;1778;47.966;7.854;2023-09-19T00:33:35;16.60;99.90
3528;DHT22;1778;47.966;7.854;2023-09-19T00:34:37;16.60;99.90
3528;DHT22;1778;47.966;7.854;2023-09-19T00:35:39;16.60;99.90
3528;DHT22;1778;47.966;7.854;2023-09-19T00:36:48;16.60;99.90
3528;DHT22;1778;47.966;7.854;2023-09-19T00:37:50;16.50;99.90
3528;DHT22;1778;47.966;7.854;2023-09-19T00:38:52;16.50;99.90
3528;DHT22;1778;47.966;7.854;2023-09-19T00:39:54;16.50;99.90
3528;DHT22;1778;47.966;7.854;2023-09-19T00:40:56;16.50;99.90
3528;DHT22;1778;47.966;7.854;2023-09-19T00:42:01;16.50;99.90
3528;DHT22;1778;47.966;7.854;2023-09-19T00:43:06;16.50;99.90
3528;DHT22;1778;47.966;7.854;2023-09-19T00:44:07;16.50;99.90
3528;DHT22;1778;47.966;7.854;2023-09-19T00:45:12;16.50;99.90
3528;DHT22;1778;47.966;7.854;2023-09-19T00:46:17;16.50;99.90
3528;DHT22;1778;47.966;7.854;2023-09-19T00:47:20;16.50;99.90
3528;DHT22;1778;47.966;7.854;2023-09-19T00:48:22;16.50;99.90
3528;DHT22;1778;47.966;7.854;2023-09-19T00:49:26;16.50;99.90
3528;DHT22;1778;47.966;7.854;2023-09-19T00:50:29;16.50;99.90
3528;DHT22;1778;47.966;7.854;2023-09-19T00:51:34;16.40;99.90
3528;DHT22;1778;47.966;7.854;2023-09-19T00:52:37;16.50;99.90
3528;DHT22;1778;47.966;7.854;2023-09-19T00:53:40;16.50;99.90
3528;DHT22;1778;47.966;7.854;2023-09-19T00:54:48;16.50;99.90
3528;DHT22;1778;47.966;7.854;2023-09-19T00:55:50;16.50;99.90
3528;DHT22;1778;47.966;7.854;2023-09-19T00:56:53;16.50;99.90
3528;DHT22;1778;47.966;7.854;2023-09-19T00:57:56;16.50;99.90
3528;DHT22;1778;47.966;7.854;2023-09-19T00:58:58;16.50;99.90
3528;DHT22;1778;47.966;7.854;2023-09-19T01:00:01;16.50;99.90
3528;DHT22;1778;47.966;7.854;2023-09-19T01:01:08;16.50;99.90
3528;DHT22;1778;47.966;7.854;2023-09-19T01:02:11;16.50;99.90
3528;DHT22;1778;47.966;7.854;2023-09-19T01:03:15;16.50;99.90
3528;DHT22;1778;47.966;7.854;2023-09-19T01:04:17;16.60;99.90
3528;DHT22;1778;47.966;7.854;2023-09-19T01:05:19;16.50;99.90
3528;DHT22;1778;47.966;7.854;2023-09-19T01:06:21;16.50;99.90
3528;DHT22;1778;47.966;7.854;2023-09-19T01:07:23;16.50;99.90
3528;DHT22;1778;47.966;7.854;2023-09-19T01:08:24;16.40;99.90
3528;DHT22;1778;47.966;7.854;2023-09-19T01:09:31;16.50;99.90
3528;DHT22;1778;47.966;7.854;2023-09-19T01:10:33;16.50;99.90
3528;DHT22;1778;47.966;7.854;2023-09-19T01:11:43;16.60;99.90
3528;DHT22;1778;47.966;7.854;2023-09-19T01:14:24;16.60;99.90
3528;DHT22;1778;47.966;7.854;2023-09-19T01:16:42;16.50;99.90
3528;DHT22;1778;47.966;7.854;2023-09-19T01:18:00;16.50;99.90
3528;DHT22;1778;47.966;7.854;2023-09-19T01:19:16;16.50;99.90
3528;DHT22;1778;47.966;7.854;2023-09-19T01:20:39;16.50;99.90
3528;DHT22;1778;47.966;7.854;2023-09-19T01:21:54;16.60;99.90
3528;DHT22;1778;47.966;7.854;2023-09-19T01:23:11;16.50;99.90
3528;DHT22;1778;47.966;7.854;2023-09-19T01:27:17;16.60;99.90
3528;DHT22;1778;47.966;7.854;2023-09-19T01:28:52;16.70;99.90
3528;DHT22;1778;47.966;7.854;2023-09-19T01:30:14;16.70;99.90
3528;DHT22;1778;47.966;7.854;2023-09-19T01:31:17;16.70;99.90
3528;DHT22;1778;47.966;7.854;2023-09-19T01:32:22;16.70;99.90
3528;DHT22;1778;47.966;7.854;2023-09-19T01:33:26;16.70;99.90
3528;DHT22;1778;47.966;7.854;2023-09-19T01:34:27;16.80;99.90
3528;DHT22;1778;47.966;7.854;2023-09-19T01:35:45;16.80;99.90
3528;DHT22;1778;47.966;7.854;2023-09-19T01:36:46;16.80;99.90
3528;DHT22;1778;47.966;7.854;2023-09-19T01:37:48;16.80;99.90
3528;DHT22;1778;47.966;7.854;2023-09-19T01:38:52;16.80;99.90
3528;DHT22;1778;47.966;7.854;2023-09-19T01:40:06;16.80;99.90
3528;DHT22;1778;47.966;7.854;2023-09-19T01:41:26;16.80;99.90
3528;DHT22;1778;47.966;7.854;2023-09-19T01:43:32;16.80;99.90
3528;DHT22;1778;47.966;7.854;2023-09-19T01:44:09;16.90;99.90
3528;DHT22;1778;47.966;7.854;2023-09-19T01:46:39;16.90;99.90
3528;DHT22;1778;47.966;7.854;2023-09-19T01:47:51;16.90;99.90
3528;DHT22;1778;47.966;7.854;2023-09-19T01:50:58;17.00;99.90
3528;DHT22;1778;47.966;7.854;2023-09-19T01:52:12;17.00;99.90
3528;DHT22;1778;47.966;7.854;2023-09-19T01:53:36;17.00;99.90
3528;DHT22;1778;47.966;7.854;2023-09-19T01:54:50;17.00;99.90
3528;DHT22;1778;47.966;7.854;2023-09-19T01:55:53;16.90;99.90
3528;DHT22;1778;47.966;7.854;2023-09-19T01:57:16;16.90;99.90
3528;DHT22;1778;47.966;7.854;2023-09-19T01:58:30;16.90;99.90
3528;DHT22;1778;47.966;7.854;2023-09-19T01:59:41;16.90;99.90
3528;DHT22;1778;47.966;7.854;2023-09-19T02:00:48;16.90;99.90
3528;DHT22;1778;47.966;7.854;2023-09-19T02:01:52;16.90;99.90
3528;DHT22;1778;47.966;7.854;2023-09-19T02:02:56;17.00;99.90
3528;DHT22;1778;47.966;7.854;2023-09-19T02:04:00;17.00;99.90
3528;DHT22;1778;47.966;7.854;2023-09-19T02:05:04;17.00;99.90
3528;DHT22;1778;47.966;7.854;2023-09-19T02:06:06;17.00;99.90
3528;DHT22;1778;47.966;7.854;2023-09-19T02:07:12;17.00;99.90
3528;DHT22;1778;47.966;7.854;2023-09-19T02:08:19;17.00;99.90
3528;DHT22;1778;47.966;7.854;2023-09-19T02:09:21;17.00;99.90
3528;DHT22;1778;47.966;7.854;2023-09-19T02:10:23;17.00;99.90
3528;DHT22;1778;47.966;7.854;2023-09-19T02:11:24;17.00;99.90
3528;DHT22;1778;47.966;7.854;2023-09-19T02:12:27;17.00;99.90
3528;DHT22;1778;47.966;7.854;2023-09-19T02:13:28;17.10;99.90
3528;DHT22;1778;47.966;7.854;2023-09-19T02:14:30;17.00;99.90
3528;DHT22;1778;47.966;7.854;2023-09-19T02:15:32;17.00;99.90
3528;DHT22;1778;47.966;7.854;2023-09-19T02:16:35;17.00;99.90
3528;DHT22;1778;47.966;7.854;2023-09-19T02:17:38;17.00;99.90
3528;DHT22;1778;47.966;7.854;2023-09-19T02:18:39;17.10;99.90
3528;DHT22;1778;47.966;7.854;2023-09-19T02:19:41;17.00;99.90
3528;DHT22;1778;47.966;7.854;2023-09-19T02:20:44;17.00;99.90
3528;DHT22;1778;47.966;7.854;2023-09-19T02:21:45;17.10;99.90
3528;DHT22;1778;47.966;7.854;2023-09-19T02:22:47;17.10;99.90
3528;DHT22;1778;47.966;7.854;2023-09-19T02:23:51;17.10;99.90
3528;DHT22;1778;47.966;7.854;2023-09-19T02:24:53;17.10;99.90
3528;DHT22;1778;47.966;7.854;2023-09-19T02:25:55;17.00;99.90
3528;DHT22;1778;47.966;7.854;2023-09-19T02:26:59;17.00;99.90
3528;DHT22;1778;47.966;7.854;2023-09-19T02:28:05;17.10;99.90
3528;DHT22;1778;47.966;7.854;2023-09-19T02:29:07;17.10;99.90
3528;DHT22;1778;47.966;7.854;2023-09-19T02:30:10;17.00;99.90
3528;DHT22;1778;47.966;7.854;2023-09-19T02:31:12;17.00;99.90
3528;DHT22;1778;47.966;7.854;2023-09-19T02:32:14;17.00;99.90
3528;DHT22;1778;47.966;7.854;2023-09-19T02:33:16;17.10;99.90
3528;DHT22;1778;47.966;7.854;2023-09-19T02:34:18;17.00;99.90
3528;DHT22;1778;47.966;7.854;2023-09-19T02:35:20;17.00;99.90
3528;DHT22;1778;47.966;7.854;2023-09-19T02:36:22;17.00;99.90
3528;DHT22;1778;47.966;7.854;2023-09-19T02:37:25;17.00;99.90
3528;DHT22;1778;47.966;7.854;2023-09-19T02:38:26;17.00;99.90
3528;DHT22;1778;47.966;7.854;2023-09-19T02:39:28;17.10;99.90
3528;DHT22;1778;47.966;7.854;2023-09-19T02:40:30;17.00;99.90
3528;DHT22;1778;47.966;7.854;2023-09-19T02:41:31;17.00;99.90
3528;DHT22;1778;47.966;7.854;2023-09-19T02:42:34;17.00;99.90
3528;DHT22;1778;47.966;7.854;2023-09-19T02:43:36;17.00;99.90
3528;DHT22;1778;47.966;7.854;2023-09-19T02:44:38;17.00;99.90
3528;DHT22;1778;47.966;7.854;2023-09-19T02:45:41;17.00;99.90
3528;DHT22;1778;47.966;7.854;2023-09-19T02:46:43;17.00;99.90
3528;DHT22;1778;47.966;7.854;2023-09-19T02:47:48;17.00;99.90
3528;DHT22;1778;47.966;7.854;2023-09-19T02:48:50;17.00;99.90
3528;DHT22;1778;47.966;7.854;2023-09-19T02:49:51;16.90;99.90
3528;DHT22;1778;47.966;7.854;2023-09-19T02:50:53;16.90;99.90
3528;DHT22;1778;47.966;7.854;2023-09-19T02:51:55;16.90;99.90
3528;DHT22;1778;47.966;7.854;2023-09-19T02:52:56;16.90;99.90
3528;DHT22;1778;47.966;7.854;2023-09-19T02:54:01;16.80;99.90
3528;DHT22;1778;47.966;7.854;2023-09-19T02:55:04;16.90;99.90
3528;DHT22;1778;47.966;7.854;2023-09-19T02:56:07;16.80;99.90
3528;DHT22;1778;47.966;7.854;2023-09-19T02:57:11;16.80;99.90
3528;DHT22;1778;47.966;7.854;2023-09-19T02:58:13;16.70;99.90
3528;DHT22;1778;47.966;7.854;2023-09-19T02:59:16;16.70;99.90
3528;DHT22;1778;47.966;7.854;2023-09-19T03:00:18;16.60;99.90
3528;DHT22;1778;47.966;7.854;2023-09-19T03:01:23;16.60;99.90
3528;DHT22;1778;47.966;7.854;2023-09-19T03:02:25;16.50;99.90
3528;DHT22;1778;47.966;7.854;2023-09-19T03:03:28;16.50;99.90
3528;DHT22;1778;47.966;7.854;2023-09-19T03:04:30;16.50;99.90
3528;DHT22;1778;47.966;7.854;2023-09-19T03:05:32;16.50;99.90
3528;DHT22;1778;47.966;7.854;2023-09-19T03:06:34;16.40;99.90
3528;DHT22;1778;47.966;7.854;2023-09-19T03:07:36;16.50;99.90
3528;DHT22;1778;47.966;7.854;2023-09-19T03:08:38;16.50;99.90
3528;DHT22;1778;47.966;7.854;2023-09-19T03:09:41;16.40;99.90
3528;DHT22;1778;47.966;7.854;2023-09-19T03:10:46;16.40;99.90
3528;DHT22;1778;47.966;7.854;2023-09-19T03:11:49;16.40;99.90
3528;DHT22;1778;47.966;7.854;2023-09-19T03:12:51;16.40;99.90
3528;DHT22;1778;47.966;7.854;2023-09-19T03:13:54;16.40;99.90
3528;DHT22;1778;47.966;7.854;2023-09-19T03:14:56;16.40;99.90
3528;DHT22;1778;47.966;7.854;2023-09-19T03:15:58;16.40;99.90
3528;DHT22;1778;47.966;7.854;2023-09-19T03:17:02;16.40;99.90
3528;DHT22;1778;47.966;7.854;2023-09-19T03:18:07;16.40;99.90
3528;DHT22;1778;47.966;7.854;2023-09-19T03:19:08;16.40;99.90
3528;DHT22;1778;47.966;7.854;2023-09-19T03:20:13;16.50;99.90
3528;DHT22;1778;47.966;7.854;2023-09-19T03:21:16;16.40;99.90
3528;DHT22;1778;47.966;7.854;2023-09-19T03:22:18;16.30;99.90
3528;DHT22;1778;47.966;7.854;2023-09-19T03:23:23;16.40;99.90
3528;DHT22;1778;47.966;7.854;2023-09-19T03:24:25;16.30;99.90
3528;DHT22;1778;47.966;7.854;2023-09-19T03:25:27;16.30;99.90
3528;DHT22;1778;47.966;7.854;2023-09-19T03:26:30;16.30;99.90
3528;DHT22;1778;47.966;7.854;2023-09-19T03:27:31;16.30;99.90
3528;DHT22;1778;47.966;7.854;2023-09-19T03:28:34;16.40;99.90
3528;DHT22;1778;47.966;7.854;2023-09-19T03:29:36;16.30;99.90
3528;DHT22;1778;47.966;7.854;2023-09-19T03:30:38;16.30;99.90
3528;DHT22;1778;47.966;7.854;2023-09-19T03:31:40;16.30;99.90
3528;DHT22;1778;47.966;7.854;2023-09-19T03:32:46;16.30;99.90
3528;DHT22;1778;47.966;7.854;2023-09-19T03:33:48;16.30;99.90
3528;DHT22;1778;47.966;7.854;2023-09-19T03:34:50;16.30;99.90
3528;DHT22;1778;47.966;7.854;2023-09-19T03:35:52;16.40;99.90
3528;DHT22;1778;47.966;7.854;2023-09-19T03:36:55;16.40;99.90
3528;DHT22;1778;47.966;7.854;2023-09-19T03:37:57;16.40;99.90
3528;DHT22;1778;47.966;7.854;2023-09-19T03:38:58;16.40;99.90
3528;DHT22;1778;47.966;7.854;2023-09-19T03:40:01;16.40;99.90
3528;DHT22;1778;47.966;7.854;2023-09-19T03:41:06;16.50;99.90
3528;DHT22;1778;47.966;7.854;2023-09-19T03:42:09;16.40;99.90
3528;DHT22;1778;47.966;7.854;2023-09-19T03:43:11;16.40;99.90
3528;DHT22;1778;47.966;7.854;2023-09-19T03:44:13;16.40;99.90
3528;DHT22;1778;47.966;7.854;2023-09-19T03:45:14;16.40;99.90
3528;DHT22;1778;47.966;7.854;2023-09-19T03:46:25;16.50;99.90
3528;DHT22;1778;47.966;7.854;2023-09-19T03:47:28;16.50;99.90
3528;DHT22;1778;47.966;7.854;2023-09-19T03:48:32;16.50;99.90
3528;DHT22;1778;47.966;7.854;2023-09-19T03:49:35;16.50;99.90
3528;DHT22;1778;47.966;7.854;2023-09-19T03:50:36;16.50;99.90
3528;DHT22;1778;47.966;7.854;2023-09-19T03:51:38;16.50;99.90
3528;DHT22;1778;47.966;7.854;2023-09-19T03:52:43;16.40;99.90
3528;DHT22;1778;47.966;7.854;2023-09-19T03:53:45;16.40;99.90
3528;DHT22;1778;47.966;7.854;2023-09-19T03:54:47;16.40;99.90
3528;DHT22;1778;47.966;7.854;2023-09-19T03:55:48;16.40;99.90
3528;DHT22;1778;47.966;7.854;2023-09-19T03:56:50;16.40;99.90
3528;DHT22;1778;47.966;7.854;2023-09-19T03:57:52;16.40;99.90
3528;DHT22;1778;47.966;7.854;2023-09-19T03:58:54;16.40;99.90
3528;DHT22;1778;47.966;7.854;2023-09-19T03:59:56;16.40;99.90
3528;DHT22;1778;47.966;7.854;2023-09-19T04:00:58;16.50;99.90
3528;DHT22;1778;47.966;7.854;2023-09-19T04:02:01;16.40;99.90
3528;DHT22;1778;47.966;7.854;2023-09-19T04:03:04;16.40;99.90
3528;DHT22;1778;47.966;7.854;2023-09-19T04:04:08;16.40;99.90
3528;DHT22;1778;47.966;7.854;2023-09-19T04:05:10;16.40;99.90
3528;DHT22;1778;47.966;7.854;2023-09-19T04:06:14;16.40;99.90
3528;DHT22;1778;47.966;7.854;2023-09-19T04:07:16;16.40;99.90
3528;DHT22;1778;47.966;7.854;2023-09-19T04:08:18;16.40;99.90
3528;DHT22;1778;47.966;7.854;2023-09-19T04:09:19;16.40;99.90
3528;DHT22;1778;47.966;7.854;2023-09-19T04:10:21;16.50;99.90
3528;DHT22;1778;47.966;7.854;2023-09-19T04:11:22;16.50;99.90
3528;DHT22;1778;47.966;7.854;2023-09-19T04:12:24;16.40;99.90
3528;DHT22;1778;47.966;7.854;2023-09-19T04:13:26;16.40;99.90
3528;DHT22;1778;47.966;7.854;2023-09-19T04:14:27;16.40;99.90
3528;DHT22;1778;47.966;7.854;2023-09-19T04:15:29;16.40;99.90
3528;DHT22;1778;47.966;7.854;2023-09-19T04:16:30;16.40;99.90
3528;DHT22;1778;47.966;7.854;2023-09-19T04:17:33;16.40;99.90
3528;DHT22;1778;47.966;7.854;2023-09-19T04:18:35;16.40;99.90
3528;DHT22;1778;47.966;7.854;2023-09-19T04:19:40;16.40;99.90
3528;DHT22;1778;47.966;7.854;2023-09-19T04:20:48;16.40;99.90
3528;DHT22;1778;47.966;7.854;2023-09-19T04:21:50;16.50;99.90
3528;DHT22;1778;47.966;7.854;2023-09-19T04:22:51;16.40;99.90
3528;DHT22;1778;47.966;7.854;2023-09-19T04:23:53;16.40;99.90
3528;DHT22;1778;47.966;7.854;2023-09-19T04:24:55;16.40;99.90
3528;DHT22;1778;47.966;7.854;2023-09-19T04:25:57;16.50;99.90
3528;DHT22;1778;47.966;7.854;2023-09-19T04:26:58;16.50;99.90
3528;DHT22;1778;47.966;7.854;2023-09-19T04:28:03;16.40;99.90
3528;DHT22;1778;47.966;7.854;2023-09-19T04:29:05;16.50;99.90
3528;DHT22;1778;47.966;7.854;2023-09-19T04:30:08;16.50;99.90
3528;DHT22;1778;47.966;7.854;2023-09-19T04:31:13;16.50;99.90
3528;DHT22;1778;47.966;7.854;2023-09-19T04:32:16;16.40;99.90
3528;DHT22;1778;47.966;7.854;2023-09-19T04:33:18;16.50;99.90
3528;DHT22;1778;47.966;7.854;2023-09-19T04:34:20;16.50;99.90
3528;DHT22;1778;47.966;7.854;2023-09-19T04:35:21;16.50;99.90
3528;DHT22;1778;47.966;7.854;2023-09-19T04:36:23;16.50;99.90
3528;DHT22;1778;47.966;7.854;2023-09-19T04:37:40;16.60;99.90
3528;DHT22;1778;47.966;7.854;2023-09-19T04:38:43;16.60;99.90
3528;DHT22;1778;47.966;7.854;2023-09-19T04:39:47;16.60;99.90
3528;DHT22;1778;47.966;7.854;2023-09-19T04:40:49;16.60;99.90
3528;DHT22;1778;47.966;7.854;2023-09-19T04:41:51;16.60;99.90
3528;DHT22;1778;47.966;7.854;2023-09-19T04:42:56;16.50;99.90
3528;DHT22;1778;47.966;7.854;2023-09-19T04:43:58;16.60;99.90
3528;DHT22;1778;47.966;7.854;2023-09-19T04:44:59;16.60;99.90
3528;DHT22;1778;47.966;7.854;2023-09-19T04:46:01;16.70;99.90
3528;DHT22;1778;47.966;7.854;2023-09-19T04:47:05;16.70;99.90
3528;DHT22;1778;47.966;7.854;2023-09-19T04:48:07;16.70;99.90
3528;DHT22;1778;47.966;7.854;2023-09-19T04:49:10;16.70;99.90
3528;DHT22;1778;47.966;7.854;2023-09-19T04:50:11;16.60;99.90
3528;DHT22;1778;47.966;7.854;2023-09-19T04:51:13;16.60;99.90
3528;DHT22;1778;47.966;7.854;2023-09-19T04:52:16;16.60;99.90
3528;DHT22;1778;47.966;7.854;2023-09-19T04:53:18;16.70;99.90
3528;DHT22;1778;47.966;7.854;2023-09-19T04:54:21;16.70;99.90
3528;DHT22;1778;47.966;7.854;2023-09-19T04:55:24;16.70;99.90
3528;DHT22;1778;47.966;7.854;2023-09-19T04:56:25;16.60;99.90
3528;DHT22;1778;47.966;7.854;2023-09-19T04:57:27;16.70;99.90
3528;DHT22;1778;47.966;7.854;2023-09-19T04:58:29;16.70;99.90
3528;DHT22;1778;47.966;7.854;2023-09-19T04:59:31;16.70;99.90
3528;DHT22;1778;47.966;7.854;2023-09-19T05:00:32;16.70;99.90
3528;DHT22;1778;47.966;7.854;2023-09-19T05:01:36;16.70;99.90
3528;DHT22;1778;47.966;7.854;2023-09-19T05:02:38;16.60;99.90
3528;DHT22;1778;47.966;7.854;2023-09-19T05:03:41;16.60;99.90
3528;DHT22;1778;47.966;7.854;2023-09-19T05:04:43;16.60;99.90
3528;DHT22;1778;47.966;7.854;2023-09-19T05:05:45;16.70;99.90
3528;DHT22;1778;47.966;7.854;2023-09-19T05:06:46;16.70;99.90
3528;DHT22;1778;47.966;7.854;2023-09-19T05:07:48;16.70;99.90
3528;DHT22;1778;47.966;7.854;2023-09-19T05:08:50;16.70;99.90
3528;DHT22;1778;47.966;7.854;2023-09-19T05:09:52;16.70;99.90
3528;DHT22;1778;47.966;7.854;2023-09-19T05:10:53;16.70;99.90
3528;DHT22;1778;47.966;7.854;2023-09-19T05:11:57;16.60;99.90
3528;DHT22;1778;47.966;7.854;2023-09-19T05:12:59;16.60;99.90
3528;DHT22;1778;47.966;7.854;2023-09-19T05:14:02;16.70;99.90
3528;DHT22;1778;47.966;7.854;2023-09-19T05:15:06;16.60;99.90
3528;DHT22;1778;47.966;7.854;2023-09-19T05:16:10;16.70;99.90
3528;DHT22;1778;47.966;7.854;2023-09-19T05:17:13;16.70;99.90
3528;DHT22;1778;47.966;7.854;2023-09-19T05:18:18;16.60;99.90
3528;DHT22;1778;47.966;7.854;2023-09-19T05:19:20;16.60;99.90
3528;DHT22;1778;47.966;7.854;2023-09-19T05:20:22;16.60;99.90
3528;DHT22;1778;47.966;7.854;2023-09-19T05:21:31;16.60;99.90
3528;DHT22;1778;47.966;7.854;2023-09-19T05:22:32;16.70;99.90
3528;DHT22;1778;47.966;7.854;2023-09-19T05:23:34;16.70;99.90
3528;DHT22;1778;47.966;7.854;2023-09-19T05:24:35;16.70;99.90
3528;DHT22;1778;47.966;7.854;2023-09-19T05:25:37;16.70;99.90
3528;DHT22;1778;47.966;7.854;2023-09-19T05:26:40;16.80;99.90
3528;DHT22;1778;47.966;7.854;2023-09-19T05:27:43;16.80;99.90
3528;DHT22;1778;47.966;7.854;2023-09-19T05:28:44;16.80;99.90
3528;DHT22;1778;47.966;7.854;2023-09-19T05:29:46;16.80;99.90
3528;DHT22;1778;47.966;7.854;2023-09-19T05:30:48;16.80;99.90
3528;DHT22;1778;47.966;7.854;2023-09-19T05:31:50;16.90;99.90
3528;DHT22;1778;47.966;7.854;2023-09-19T05:32:52;16.90;99.90
3528;DHT22;1778;47.966;7.854;2023-09-19T05:33:54;16.90;99.90
3528;DHT22;1778;47.966;7.854;2023-09-19T05:34:56;16.90;99.90
3528;DHT22;1778;47.966;7.854;2023-09-19T05:35:58;16.90;99.90
3528;DHT22;1778;47.966;7.854;2023-09-19T05:36:59;16.90;99.90
3528;DHT22;1778;47.966;7.854;2023-09-19T05:38:01;16.90;99.90
3528;DHT22;1778;47.966;7.854;2023-09-19T05:39:03;16.90;99.90
3528;DHT22;1778;47.966;7.854;2023-09-19T05:40:05;16.90;99.90
3528;DHT22;1778;47.966;7.854;2023-09-19T05:41:08;16.90;99.90
3528;DHT22;1778;47.966;7.854;2023-09-19T05:42:15;17.00;99.90
3528;DHT22;1778;47.966;7.854;2023-09-19T05:43:16;17.00;99.90
3528;DHT22;1778;47.966;7.854;2023-09-19T05:44:18;17.00;99.90
3528;DHT22;1778;47.966;7.854;2023-09-19T05:45:19;17.00;99.90
3528;DHT22;1778;47.966;7.854;2023-09-19T05:46:24;17.00;99.90
3528;DHT22;1778;47.966;7.854;2023-09-19T05:47:25;17.00;99.90
3528;DHT22;1778;47.966;7.854;2023-09-19T05:48:27;17.10;99.90
3528;DHT22;1778;47.966;7.854;2023-09-19T05:49:29;17.20;99.90
3528;DHT22;1778;47.966;7.854;2023-09-19T05:50:30;17.10;99.90
3528;DHT22;1778;47.966;7.854;2023-09-19T05:51:33;17.10;99.90
3528;DHT22;1778;47.966;7.854;2023-09-19T05:52:38;17.10;99.90
3528;DHT22;1778;47.966;7.854;2023-09-19T05:53:40;17.10;99.90
3528;DHT22;1778;47.966;7.854;2023-09-19T05:54:45;17.10;99.90
3528;DHT22;1778;47.966;7.854;2023-09-19T05:55:46;17.10;99.90
3528;DHT22;1778;47.966;7.854;2023-09-19T05:56:48;17.20;99.90
3528;DHT22;1778;47.966;7.854;2023-09-19T05:57:53;17.10;99.90
3528;DHT22;1778;47.966;7.854;2023-09-19T05:58:55;17.10;99.90
3528;DHT22;1778;47.966;7.854;2023-09-19T05:59:56;17.20;99.90
3528;DHT22;1778;47.966;7.854;2023-09-19T06:00:58;17.20;99.90
3528;DHT22;1778;47.966;7.854;2023-09-19T06:02:00;17.10;99.90
3528;DHT22;1778;47.966;7.854;2023-09-19T06:03:02;17.20;99.90
3528;DHT22;1778;47.966;7.854;2023-09-19T06:04:03;17.20;99.90
3528;DHT22;1778;47.966;7.854;2023-09-19T06:05:06;17.20;99.90
3528;DHT22;1778;47.966;7.854;2023-09-19T06:06:11;17.20;99.90
3528;DHT22;1778;47.966;7.854;2023-09-19T06:07:13;17.30;99.90
3528;DHT22;1778;47.966;7.854;2023-09-19T06:08:14;17.20;99.90
3528;DHT22;1778;47.966;7.854;2023-09-19T06:09:16;17.20;99.90
3528;DHT22;1778;47.966;7.854;2023-09-19T06:10:19;17.20;99.90
3528;DHT22;1778;47.966;7.854;2023-09-19T06:11:22;17.30;99.90
3528;DHT22;1778;47.966;7.854;2023-09-19T06:12:26;17.30;99.90
3528;DHT22;1778;47.966;7.854;2023-09-19T06:13:30;17.30;99.90
3528;DHT22;1778;47.966;7.854;2023-09-19T06:14:33;17.30;99.90
3528;DHT22;1778;47.966;7.854;2023-09-19T06:15:35;17.30;99.90
3528;DHT22;1778;47.966;7.854;2023-09-19T06:16:37;17.30;99.90
3528;DHT22;1778;47.966;7.854;2023-09-19T06:17:46;17.30;99.90
3528;DHT22;1778;47.966;7.854;2023-09-19T06:18:48;17.30;99.90
3528;DHT22;1778;47.966;7.854;2023-09-19T06:19:51;17.30;99.90
3528;DHT22;1778;47.966;7.854;2023-09-19T06:20:53;17.30;99.90
3528;DHT22;1778;47.966;7.854;2023-09-19T06:21:54;17.30;99.90
3528;DHT22;1778;47.966;7.854;2023-09-19T06:22:56;17.30;99.90
3528;DHT22;1778;47.966;7.854;2023-09-19T06:23:58;17.40;99.90
3528;DHT22;1778;47.966;7.854;2023-09-19T06:25:00;17.40;99.90
3528;DHT22;1778;47.966;7.854;2023-09-19T06:26:02;17.40;99.90
3528;DHT22;1778;47.966;7.854;2023-09-19T06:27:04;17.40;99.90
3528;DHT22;1778;47.966;7.854;2023-09-19T06:28:08;17.40;99.90
3528;DHT22;1778;47.966;7.854;2023-09-19T06:29:13;17.40;99.90
3528;DHT22;1778;47.966;7.854;2023-09-19T06:30:16;17.40;99.90
3528;DHT22;1778;47.966;7.854;2023-09-19T06:31:18;17.50;99.90
3528;DHT22;1778;47.966;7.854;2023-09-19T06:32:28;17.50;99.90
3528;DHT22;1778;47.966;7.854;2023-09-19T06:33:30;17.50;99.90
3528;DHT22;1778;47.966;7.854;2023-09-19T06:34:32;17.50;99.90
3528;DHT22;1778;47.966;7.854;2023-09-19T06:35:34;17.50;99.90
3528;DHT22;1778;47.966;7.854;2023-09-19T06:36:36;17.60;99.90
3528;DHT22;1778;47.966;7.854;2023-09-19T06:37:38;17.60;99.90
3528;DHT22;1778;47.966;7.854;2023-09-19T06:38:40;17.60;99.90
3528;DHT22;1778;47.966;7.854;2023-09-19T06:39:42;17.70;99.90
3528;DHT22;1778;47.966;7.854;2023-09-19T06:40:44;17.60;99.90
3528;DHT22;1778;47.966;7.854;2023-09-19T06:41:46;17.60;99.90
3528;DHT22;1778;47.966;7.854;2023-09-19T06:42:52;17.60;99.90
3528;DHT22;1778;47.966;7.854;2023-09-19T06:43:57;17.60;99.90
3528;DHT22;1778;47.966;7.854;2023-09-19T06:44:59;17.60;99.90
3528;DHT22;1778;47.966;7.854;2023-09-19T06:46:01;17.60;99.90
3528;DHT22;1778;47.966;7.854;2023-09-19T06:47:03;17.60;99.90
3528;DHT22;1778;47.966;7.854;2023-09-19T06:48:06;17.60;99.90
3528;DHT22;1778;47.966;7.854;2023-09-19T06:49:08;17.50;99.90
3528;DHT22;1778;47.966;7.854;2023-09-19T06:50:12;17.60;99.90
3528;DHT22;1778;47.966;7.854;2023-09-19T06:51:16;17.60;99.90
3528;DHT22;1778;47.966;7.854;2023-09-19T06:52:18;17.60;99.90
3528;DHT22;1778;47.966;7.854;2023-09-19T06:53:21;17.60;99.90
3528;DHT22;1778;47.966;7.854;2023-09-19T06:54:24;17.70;99.90
3528;DHT22;1778;47.966;7.854;2023-09-19T06:55:26;17.70;99.90
3528;DHT22;1778;47.966;7.854;2023-09-19T06:56:33;17.70;99.90
3528;DHT22;1778;47.966;7.854;2023-09-19T06:57:34;17.70;99.90
3528;DHT22;1778;47.966;7.854;2023-09-19T06:58:36;17.70;99.90
3528;DHT22;1778;47.966;7.854;2023-09-19T06:59:38;17.70;99.90
3528;DHT22;1778;47.966;7.854;2023-09-19T07:00:40;17.80;99.90
3528;DHT22;1778;47.966;7.854;2023-09-19T07:01:42;17.80;99.90
3528;DHT22;1778;47.966;7.854;2023-09-19T07:03:01;17.70;99.90
3528;DHT22;1778;47.966;7.854;2023-09-19T07:04:06;17.70;99.90
3528;DHT22;1778;47.966;7.854;2023-09-19T07:05:08;17.70;99.90